sensor_id;sensor_type;location;lat;lon;timestamp;P1;durP1;ratioP1;P2;durP2;ratioP2
68273;SDS011;55104;47.356;19.448;2024-03-23T00:55:28;13.63;;;5.30;;
68273;SDS011;55104;47.356;19.448;2024-03-23T00:58:29;11.95;;;4.35;;
68273;SDS011;55104;47.356;19.448;2024-03-23T01:01:30;8.80;;;3.42;;
68273;SDS011;55104;47.356;19.448;2024-03-23T01:04:31;10.38;;;4.30;;
68273;SDS011;55104;47.356;19.448;2024-03-23T01:07:33;11.35;;;4.80;;
68273;SDS011;55104;47.356;19.448;2024-03-23T01:10:34;9.73;;;3.97;;
68273;SDS011;55104;47.356;19.448;2024-03-23T01:13:35;11.35;;;4.13;;
68273;SDS011;55104;47.356;19.448;2024-03-23T01:16:36;13.27;;;6.05;;
68273;SDS011;55104;47.356;19.448;2024-03-23T01:19:37;10.47;;;4.27;;
68273;SDS011;55104;47.356;19.448;2024-03-23T01:22:40;10.07;;;4.65;;
68273;SDS011;55104;47.356;19.448;2024-03-23T01:25:41;10.65;;;4.18;;
68273;SDS011;55104;47.356;19.448;2024-03-23T01:28:42;9.85;;;3.83;;
68273;SDS011;55104;47.356;19.448;2024-03-23T01:31:44;8.07;;;3.28;;
68273;SDS011;55104;47.356;19.448;2024-03-23T01:34:46;10.63;;;4.38;;
68273;SDS011;55104;47.356;19.448;2024-03-23T01:37:48;17.63;;;5.13;;
68273;SDS011;55104;47.356;19.448;2024-03-23T01:40:49;11.20;;;5.17;;
68273;SDS011;55104;47.356;19.448;2024-03-23T01:43:50;14.95;;;5.05;;
68273;SDS011;55104;47.356;19.448;2024-03-23T01:46:52;12.85;;;4.90;;
68273;SDS011;55104;47.356;19.448;2024-03-23T01:49:53;9.00;;;3.77;;
68273;SDS011;55104;47.356;19.448;2024-03-23T01:52:54;11.30;;;4.45;;
68273;SDS011;55104;47.356;19.448;2024-03-23T01:55:55;12.25;;;5.13;;
68273;SDS011;55104;47.356;19.448;2024-03-23T01:58:57;17.83;;;5.43;;
68273;SDS011;55104;47.356;19.448;2024-03-23T02:01:59;11.40;;;4.88;;
68273;SDS011;55104;47.356;19.448;2024-03-23T02:05:00;10.80;;;4.55;;
68273;SDS011;55104;47.356;19.448;2024-03-23T02:08:02;10.73;;;4.57;;
68273;SDS011;55104;47.356;19.448;2024-03-23T02:11:03;13.97;;;5.70;;
68273;SDS011;55104;47.356;19.448;2024-03-23T02:14:05;12.48;;;4.70;;
68273;SDS011;55104;47.356;19.448;2024-03-23T02:17:06;10.05;;;4.28;;
68273;SDS011;55104;47.356;19.448;2024-03-23T02:20:07;10.07;;;4.30;;
68273;SDS011;55104;47.356;19.448;2024-03-23T02:23:15;13.27;;;5.97;;
68273;SDS011;55104;47.356;19.448;2024-03-23T02:26:17;14.25;;;4.50;;
68273;SDS011;55104;47.356;19.448;2024-03-23T02:29:18;14.20;;;3.35;;
68273;SDS011;55104;47.356;19.448;2024-03-23T02:32:20;11.80;;;4.70;;
68273;SDS011;55104;47.356;19.448;2024-03-23T02:35:21;12.63;;;4.72;;
68273;SDS011;55104;47.356;19.448;2024-03-23T02:38:23;10.90;;;4.10;;
68273;SDS011;55104;47.356;19.448;2024-03-23T02:41:24;9.13;;;3.70;;
68273;SDS011;55104;47.356;19.448;2024-03-23T02:44:25;12.45;;;5.20;;
68273;SDS011;55104;47.356;19.448;2024-03-23T02:47:27;11.30;;;4.15;;
68273;SDS011;55104;47.356;19.448;2024-03-23T02:50:28;13.13;;;4.83;;
68273;SDS011;55104;47.356;19.448;2024-03-23T02:53:29;14.07;;;4.13;;
68273;SDS011;55104;47.356;19.448;2024-03-23T02:56:32;11.10;;;4.60;;
68273;SDS011;55104;47.356;19.448;2024-03-23T02:59:33;12.98;;;4.22;;
68273;SDS011;55104;47.356;19.448;2024-03-23T03:02:35;8.07;;;3.65;;
68273;SDS011;55104;47.356;19.448;2024-03-23T03:05:37;11.95;;;4.80;;
68273;SDS011;55104;47.356;19.448;2024-03-23T03:08:38;9.27;;;3.55;;
68273;SDS011;55104;47.356;19.448;2024-03-23T03:11:40;10.63;;;4.50;;
68273;SDS011;55104;47.356;19.448;2024-03-23T03:14:41;13.00;;;5.53;;
68273;SDS011;55104;47.356;19.448;2024-03-23T03:17:43;9.57;;;3.58;;
68273;SDS011;55104;47.356;19.448;2024-03-23T03:20:45;9.70;;;4.30;;
68273;SDS011;55104;47.356;19.448;2024-03-23T03:23:46;9.82;;;4.07;;
68273;SDS011;55104;47.356;19.448;2024-03-23T03:26:50;12.57;;;3.90;;
68273;SDS011;55104;47.356;19.448;2024-03-23T03:29:52;10.13;;;4.18;;
68273;SDS011;55104;47.356;19.448;2024-03-23T03:32:53;12.52;;;4.28;;
68273;SDS011;55104;47.356;19.448;2024-03-23T03:35:55;13.05;;;4.82;;
68273;SDS011;55104;47.356;19.448;2024-03-23T03:38:56;11.98;;;4.05;;
68273;SDS011;55104;47.356;19.448;2024-03-23T03:41:57;9.67;;;3.17;;
68273;SDS011;55104;47.356;19.448;2024-03-23T03:44:59;21.92;;;5.22;;
68273;SDS011;55104;47.356;19.448;2024-03-23T03:48:00;12.05;;;3.78;;
68273;SDS011;55104;47.356;19.448;2024-03-23T03:51:01;8.73;;;3.70;;
68273;SDS011;55104;47.356;19.448;2024-03-23T03:54:03;11.68;;;4.32;;
68273;SDS011;55104;47.356;19.448;2024-03-23T03:57:04;9.23;;;4.22;;
68273;SDS011;55104;47.356;19.448;2024-03-23T04:00:06;10.13;;;4.75;;
68273;SDS011;55104;47.356;19.448;2024-03-23T04:03:08;7.53;;;3.50;;
68273;SDS011;55104;47.356;19.448;2024-03-23T04:06:10;10.98;;;4.63;;
68273;SDS011;55104;47.356;19.448;2024-03-23T04:09:11;11.65;;;5.55;;
68273;SDS011;55104;47.356;19.448;2024-03-23T04:12:12;12.13;;;4.57;;
68273;SDS011;55104;47.356;19.448;2024-03-23T04:15:14;10.95;;;3.90;;
68273;SDS011;55104;47.356;19.448;2024-03-23T04:18:15;11.18;;;4.03;;
68273;SDS011;55104;47.356;19.448;2024-03-23T04:21:16;13.13;;;4.77;;
68273;SDS011;55104;47.356;19.448;2024-03-23T04:24:18;10.07;;;4.88;;
68273;SDS011;55104;47.356;19.448;2024-03-23T04:27:21;9.13;;;5.03;;
68273;SDS011;55104;47.356;19.448;2024-03-23T04:30:23;13.75;;;5.97;;
68273;SDS011;55104;47.356;19.448;2024-03-23T04:33:26;11.27;;;4.72;;
68273;SDS011;55104;47.356;19.448;2024-03-23T04:36:27;14.55;;;4.30;;
68273;SDS011;55104;47.356;19.448;2024-03-23T04:39:28;11.75;;;5.47;;
68273;SDS011;55104;47.356;19.448;2024-03-23T04:42:30;21.20;;;5.40;;
68273;SDS011;55104;47.356;19.448;2024-03-23T04:45:32;14.60;;;6.90;;
68273;SDS011;55104;47.356;19.448;2024-03-23T04:48:34;9.38;;;3.55;;
68273;SDS011;55104;47.356;19.448;2024-03-23T04:51:35;15.67;;;6.07;;
68273;SDS011;55104;47.356;19.448;2024-03-23T04:54:40;15.50;;;5.82;;
68273;SDS011;55104;47.356;19.448;2024-03-23T04:57:42;11.05;;;4.40;;
68273;SDS011;55104;47.356;19.448;2024-03-23T05:00:43;16.25;;;4.10;;
68273;SDS011;55104;47.356;19.448;2024-03-23T05:03:44;11.13;;;4.47;;
68273;SDS011;55104;47.356;19.448;2024-03-23T05:06:45;11.50;;;5.50;;
68273;SDS011;55104;47.356;19.448;2024-03-23T05:09:47;10.50;;;4.70;;
68273;SDS011;55104;47.356;19.448;2024-03-23T05:12:49;15.80;;;6.00;;
68273;SDS011;55104;47.356;19.448;2024-03-23T05:15:54;13.77;;;5.80;;
68273;SDS011;55104;47.356;19.448;2024-03-23T05:18:55;14.18;;;5.22;;
68273;SDS011;55104;47.356;19.448;2024-03-23T05:21:56;10.40;;;4.53;;
68273;SDS011;55104;47.356;19.448;2024-03-23T05:24:58;12.93;;;5.20;;
68273;SDS011;55104;47.356;19.448;2024-03-23T05:27:59;8.82;;;4.63;;
68273;SDS011;55104;47.356;19.448;2024-03-23T05:31:00;13.27;;;5.57;;
68273;SDS011;55104;47.356;19.448;2024-03-23T05:34:01;13.23;;;7.30;;
68273;SDS011;55104;47.356;19.448;2024-03-23T05:37:02;17.00;;;5.68;;
68273;SDS011;55104;47.356;19.448;2024-03-23T05:40:03;14.30;;;6.55;;
68273;SDS011;55104;47.356;19.448;2024-03-23T05:43:05;13.27;;;5.40;;
68273;SDS011;55104;47.356;19.448;2024-03-23T05:46:06;15.00;;;6.15;;
68273;SDS011;55104;47.356;19.448;2024-03-23T05:49:10;13.43;;;6.50;;
68273;SDS011;55104;47.356;19.448;2024-03-23T05:52:12;12.35;;;5.25;;
68273;SDS011;55104;47.356;19.448;2024-03-23T05:55:13;14.83;;;8.43;;
68273;SDS011;55104;47.356;19.448;2024-03-23T05:58:15;21.15;;;9.60;;
68273;SDS011;55104;47.356;19.448;2024-03-23T06:01:18;22.65;;;8.48;;
68273;SDS011;55104;47.356;19.448;2024-03-23T06:04:19;18.00;;;8.32;;
68273;SDS011;55104;47.356;19.448;2024-03-23T06:07:21;17.30;;;8.45;;
68273;SDS011;55104;47.356;19.448;2024-03-23T06:10:22;14.80;;;7.07;;
68273;SDS011;55104;47.356;19.448;2024-03-23T06:13:24;16.10;;;5.90;;
68273;SDS011;55104;47.356;19.448;2024-03-23T06:16:30;13.27;;;6.07;;
68273;SDS011;55104;47.356;19.448;2024-03-23T06:19:32;13.35;;;6.00;;
68273;SDS011;55104;47.356;19.448;2024-03-23T06:22:33;19.17;;;7.35;;
68273;SDS011;55104;47.356;19.448;2024-03-23T06:25:34;20.10;;;7.47;;
68273;SDS011;55104;47.356;19.448;2024-03-23T06:28:35;16.23;;;6.27;;
68273;SDS011;55104;47.356;19.448;2024-03-23T06:31:37;15.65;;;6.20;;
68273;SDS011;55104;47.356;19.448;2024-03-23T06:34:40;18.65;;;7.28;;
68273;SDS011;55104;47.356;19.448;2024-03-23T06:37:42;17.30;;;7.72;;
68273;SDS011;55104;47.356;19.448;2024-03-23T06:40:44;19.83;;;8.27;;
68273;SDS011;55104;47.356;19.448;2024-03-23T06:43:51;13.98;;;5.53;;
68273;SDS011;55104;47.356;19.448;2024-03-23T06:46:52;13.30;;;6.55;;
68273;SDS011;55104;47.356;19.448;2024-03-23T06:49:54;16.33;;;5.32;;
68273;SDS011;55104;47.356;19.448;2024-03-23T06:52:56;15.30;;;6.05;;
68273;SDS011;55104;47.356;19.448;2024-03-23T06:55:58;13.80;;;5.35;;
68273;SDS011;55104;47.356;19.448;2024-03-23T06:58:59;17.02;;;5.80;;
68273;SDS011;55104;47.356;19.448;2024-03-23T07:02:00;9.57;;;4.32;;
68273;SDS011;55104;47.356;19.448;2024-03-23T07:05:01;13.93;;;6.07;;
68273;SDS011;55104;47.356;19.448;2024-03-23T07:08:04;13.43;;;5.00;;
68273;SDS011;55104;47.356;19.448;2024-03-23T07:11:05;10.65;;;4.40;;
68273;SDS011;55104;47.356;19.448;2024-03-23T07:14:06;14.18;;;5.50;;
68273;SDS011;55104;47.356;19.448;2024-03-23T07:17:08;18.20;;;6.38;;
68273;SDS011;55104;47.356;19.448;2024-03-23T07:20:09;12.18;;;4.80;;
68273;SDS011;55104;47.356;19.448;2024-03-23T07:23:11;12.20;;;4.87;;
68273;SDS011;55104;47.356;19.448;2024-03-23T07:26:12;9.57;;;4.68;;
68273;SDS011;55104;47.356;19.448;2024-03-23T07:29:14;12.40;;;4.88;;
68273;SDS011;55104;47.356;19.448;2024-03-23T07:32:15;11.63;;;4.15;;
68273;SDS011;55104;47.356;19.448;2024-03-23T07:35:16;11.02;;;5.63;;
68273;SDS011;55104;47.356;19.448;2024-03-23T07:38:18;15.17;;;5.93;;
68273;SDS011;55104;47.356;19.448;2024-03-23T07:41:19;9.90;;;4.30;;
68273;SDS011;55104;47.356;19.448;2024-03-23T07:44:21;11.23;;;4.40;;
68273;SDS011;55104;47.356;19.448;2024-03-23T07:47:22;9.80;;;4.00;;
68273;SDS011;55104;47.356;19.448;2024-03-23T07:50:24;11.20;;;4.88;;
68273;SDS011;55104;47.356;19.448;2024-03-23T07:53:25;8.80;;;3.17;;
68273;SDS011;55104;47.356;19.448;2024-03-23T07:56:26;7.07;;;3.08;;
68273;SDS011;55104;47.356;19.448;2024-03-23T07:59:28;8.63;;;3.60;;
68273;SDS011;55104;47.356;19.448;2024-03-23T08:02:32;8.00;;;3.78;;
68273;SDS011;55104;47.356;19.448;2024-03-23T08:05:33;8.32;;;3.72;;
68273;SDS011;55104;47.356;19.448;2024-03-23T08:08:35;8.20;;;3.97;;
68273;SDS011;55104;47.356;19.448;2024-03-23T08:11:37;8.82;;;3.47;;
68273;SDS011;55104;47.356;19.448;2024-03-23T08:14:40;8.43;;;4.00;;
68273;SDS011;55104;47.356;19.448;2024-03-23T08:17:42;9.38;;;3.85;;
68273;SDS011;55104;47.356;19.448;2024-03-23T08:20:44;8.87;;;3.00;;
68273;SDS011;55104;47.356;19.448;2024-03-23T08:23:45;9.30;;;3.40;;
68273;SDS011;55104;47.356;19.448;2024-03-23T08:26:46;9.27;;;4.20;;
68273;SDS011;55104;47.356;19.448;2024-03-23T08:29:48;8.00;;;3.20;;
68273;SDS011;55104;47.356;19.448;2024-03-23T08:32:49;6.95;;;3.05;;
68273;SDS011;55104;47.356;19.448;2024-03-23T08:35:54;7.17;;;2.93;;
68273;SDS011;55104;47.356;19.448;2024-03-23T08:38:59;9.30;;;3.60;;
68273;SDS011;55104;47.356;19.448;2024-03-23T08:42:00;9.52;;;2.88;;
68273;SDS011;55104;47.356;19.448;2024-03-23T08:45:02;7.63;;;2.50;;
68273;SDS011;55104;47.356;19.448;2024-03-23T08:48:03;5.95;;;2.00;;
68273;SDS011;55104;47.356;19.448;2024-03-23T08:51:05;4.97;;;1.93;;
68273;SDS011;55104;47.356;19.448;2024-03-23T08:54:07;5.30;;;1.93;;
68273;SDS011;55104;47.356;19.448;2024-03-23T08:57:08;6.32;;;1.70;;
68273;SDS011;55104;47.356;19.448;2024-03-23T09:00:10;4.93;;;1.95;;
68273;SDS011;55104;47.356;19.448;2024-03-23T09:03:12;5.00;;;1.85;;
68273;SDS011;55104;47.356;19.448;2024-03-23T09:06:14;5.10;;;1.90;;
68273;SDS011;55104;47.356;19.448;2024-03-23T09:09:15;5.00;;;1.90;;
68273;SDS011;55104;47.356;19.448;2024-03-23T09:12:16;4.95;;;1.65;;
68273;SDS011;55104;47.356;19.448;2024-03-23T09:15:17;5.50;;;1.65;;
68273;SDS011;55104;47.356;19.448;2024-03-23T09:18:18;5.50;;;1.80;;
68273;SDS011;55104;47.356;19.448;2024-03-23T09:21:20;4.27;;;1.27;;
68273;SDS011;55104;47.356;19.448;2024-03-23T09:24:21;5.70;;;1.60;;
68273;SDS011;55104;47.356;19.448;2024-03-23T09:27:23;4.03;;;1.40;;
68273;SDS011;55104;47.356;19.448;2024-03-23T09:30:24;4.53;;;1.30;;
68273;SDS011;55104;47.356;19.448;2024-03-23T09:33:25;4.07;;;1.23;;
68273;SDS011;55104;47.356;19.448;2024-03-23T09:36:26;4.27;;;1.00;;
68273;SDS011;55104;47.356;19.448;2024-03-23T09:39:27;5.03;;;1.10;;
68273;SDS011;55104;47.356;19.448;2024-03-23T09:42:29;3.28;;;1.10;;
68273;SDS011;55104;47.356;19.448;2024-03-23T09:45:30;2.53;;;0.82;;
68273;SDS011;55104;47.356;19.448;2024-03-23T09:48:34;3.88;;;1.33;;
68273;SDS011;55104;47.356;19.448;2024-03-23T09:51:36;3.97;;;1.20;;
68273;SDS011;55104;47.356;19.448;2024-03-23T09:54:38;7.07;;;1.40;;
68273;SDS011;55104;47.356;19.448;2024-03-23T09:57:42;4.78;;;1.52;;
68273;SDS011;55104;47.356;19.448;2024-03-23T10:00:44;4.20;;;1.08;;
68273;SDS011;55104;47.356;19.448;2024-03-23T10:03:45;4.40;;;1.30;;
68273;SDS011;55104;47.356;19.448;2024-03-23T10:06:47;4.90;;;1.20;;
68273;SDS011;55104;47.356;19.448;2024-03-23T10:09:48;4.57;;;1.30;;
68273;SDS011;55104;47.356;19.448;2024-03-23T10:12:52;7.32;;;1.05;;
68273;SDS011;55104;47.356;19.448;2024-03-23T10:15:56;3.50;;;1.15;;
68273;SDS011;55104;47.356;19.448;2024-03-23T10:18:59;4.55;;;1.17;;
68273;SDS011;55104;47.356;19.448;2024-03-23T10:22:00;3.93;;;1.20;;
68273;SDS011;55104;47.356;19.448;2024-03-23T10:25:07;4.17;;;1.43;;
68273;SDS011;55104;47.356;19.448;2024-03-23T10:28:11;4.63;;;1.10;;
68273;SDS011;55104;47.356;19.448;2024-03-23T10:31:12;6.70;;;1.40;;
68273;SDS011;55104;47.356;19.448;2024-03-23T10:34:13;12.75;;;1.55;;
68273;SDS011;55104;47.356;19.448;2024-03-23T10:37:15;3.90;;;1.10;;
68273;SDS011;55104;47.356;19.448;2024-03-23T10:40:17;5.47;;;1.83;;
68273;SDS011;55104;47.356;19.448;2024-03-23T10:43:19;7.22;;;1.42;;
68273;SDS011;55104;47.356;19.448;2024-03-23T10:46:20;7.07;;;1.42;;
68273;SDS011;55104;47.356;19.448;2024-03-23T10:49:21;5.13;;;1.38;;
68273;SDS011;55104;47.356;19.448;2024-03-23T10:52:23;5.80;;;1.40;;
68273;SDS011;55104;47.356;19.448;2024-03-23T10:55:25;4.53;;;1.50;;
68273;SDS011;55104;47.356;19.448;2024-03-23T10:58:43;5.30;;;1.67;;
68273;SDS011;55104;47.356;19.448;2024-03-23T11:01:59;5.28;;;1.73;;
68273;SDS011;55104;47.356;19.448;2024-03-23T11:05:27;6.57;;;1.58;;
68273;SDS011;55104;47.356;19.448;2024-03-23T11:08:34;4.83;;;1.73;;
68273;SDS011;55104;47.356;19.448;2024-03-23T11:11:35;5.10;;;1.63;;
68273;SDS011;55104;47.356;19.448;2024-03-23T11:14:36;5.25;;;1.92;;
68273;SDS011;55104;47.356;19.448;2024-03-23T11:17:38;6.20;;;1.83;;
68273;SDS011;55104;47.356;19.448;2024-03-23T11:20:39;6.75;;;2.33;;
68273;SDS011;55104;47.356;19.448;2024-03-23T11:23:40;9.47;;;2.07;;
68273;SDS011;55104;47.356;19.448;2024-03-23T11:26:42;7.93;;;1.93;;
68273;SDS011;55104;47.356;19.448;2024-03-23T11:29:43;14.25;;;1.80;;
68273;SDS011;55104;47.356;19.448;2024-03-23T11:32:46;4.63;;;1.58;;
68273;SDS011;55104;47.356;19.448;2024-03-23T11:35:48;6.07;;;1.70;;
68273;SDS011;55104;47.356;19.448;2024-03-23T11:38:49;4.87;;;1.47;;
68273;SDS011;55104;47.356;19.448;2024-03-23T11:41:51;7.33;;;1.77;;
68273;SDS011;55104;47.356;19.448;2024-03-23T11:44:53;6.40;;;1.80;;
68273;SDS011;55104;47.356;19.448;2024-03-23T11:48:11;4.22;;;1.15;;
68273;SDS011;55104;47.356;19.448;2024-03-23T11:51:17;4.55;;;1.80;;
68273;SDS011;55104;47.356;19.448;2024-03-23T11:54:22;5.23;;;1.60;;
68273;SDS011;55104;47.356;19.448;2024-03-23T11:57:24;6.40;;;2.10;;
68273;SDS011;55104;47.356;19.448;2024-03-23T12:00:26;5.75;;;1.80;;
68273;SDS011;55104;47.356;19.448;2024-03-23T12:03:27;4.82;;;1.40;;
68273;SDS011;55104;47.356;19.448;2024-03-23T12:06:29;5.55;;;1.90;;
68273;SDS011;55104;47.356;19.448;2024-03-23T12:09:30;4.83;;;1.60;;
68273;SDS011;55104;47.356;19.448;2024-03-23T12:12:32;4.17;;;1.33;;
68273;SDS011;55104;47.356;19.448;2024-03-23T12:15:33;5.70;;;1.77;;
68273;SDS011;55104;47.356;19.448;2024-03-23T12:18:34;4.50;;;1.52;;
68273;SDS011;55104;47.356;19.448;2024-03-23T12:21:36;6.70;;;2.25;;
68273;SDS011;55104;47.356;19.448;2024-03-23T12:24:43;4.73;;;1.80;;
68273;SDS011;55104;47.356;19.448;2024-03-23T12:27:47;6.03;;;1.77;;
68273;SDS011;55104;47.356;19.448;2024-03-23T12:30:49;5.70;;;1.80;;
68273;SDS011;55104;47.356;19.448;2024-03-23T12:33:50;6.18;;;2.05;;
68273;SDS011;55104;47.356;19.448;2024-03-23T12:36:53;5.03;;;1.60;;
68273;SDS011;55104;47.356;19.448;2024-03-23T12:39:56;5.07;;;1.60;;
68273;SDS011;55104;47.356;19.448;2024-03-23T12:42:57;4.17;;;1.47;;
68273;SDS011;55104;47.356;19.448;2024-03-23T12:45:58;8.30;;;1.80;;
68273;SDS011;55104;47.356;19.448;2024-03-23T12:48:59;5.82;;;1.80;;
68273;SDS011;55104;47.356;19.448;2024-03-23T12:52:00;6.05;;;1.90;;
68273;SDS011;55104;47.356;19.448;2024-03-23T12:55:02;7.63;;;2.47;;
68273;SDS011;55104;47.356;19.448;2024-03-23T12:58:06;6.10;;;1.87;;
68273;SDS011;55104;47.356;19.448;2024-03-23T13:01:08;5.40;;;1.90;;
68273;SDS011;55104;47.356;19.448;2024-03-23T13:04:09;6.68;;;1.75;;
68273;SDS011;55104;47.356;19.448;2024-03-23T13:07:11;6.88;;;1.50;;
68273;SDS011;55104;47.356;19.448;2024-03-23T13:10:13;5.27;;;2.10;;
68273;SDS011;55104;47.356;19.448;2024-03-23T13:13:15;4.93;;;1.50;;
68273;SDS011;55104;47.356;19.448;2024-03-23T13:16:16;5.55;;;1.80;;
68273;SDS011;55104;47.356;19.448;2024-03-23T13:19:17;5.78;;;1.90;;
68273;SDS011;55104;47.356;19.448;2024-03-23T13:22:21;4.70;;;1.67;;
68273;SDS011;55104;47.356;19.448;2024-03-23T13:25:23;6.60;;;1.90;;
68273;SDS011;55104;47.356;19.448;2024-03-23T13:28:24;6.57;;;1.90;;
68273;SDS011;55104;47.356;19.448;2024-03-23T13:31:26;5.57;;;1.90;;
68273;SDS011;55104;47.356;19.448;2024-03-23T13:34:27;7.25;;;2.05;;
68273;SDS011;55104;47.356;19.448;2024-03-23T13:37:30;5.20;;;1.25;;
68273;SDS011;55104;47.356;19.448;2024-03-23T13:40:32;4.77;;;1.73;;
68273;SDS011;55104;47.356;19.448;2024-03-23T13:43:33;6.10;;;2.10;;
68273;SDS011;55104;47.356;19.448;2024-03-23T13:46:35;6.35;;;1.92;;
68273;SDS011;55104;47.356;19.448;2024-03-23T13:49:36;8.00;;;1.92;;
68273;SDS011;55104;47.356;19.448;2024-03-23T13:52:37;4.47;;;1.55;;
68273;SDS011;55104;47.356;19.448;2024-03-23T13:55:45;5.40;;;1.90;;
68273;SDS011;55104;47.356;19.448;2024-03-23T13:58:48;5.97;;;1.97;;
68273;SDS011;55104;47.356;19.448;2024-03-23T14:01:50;5.72;;;1.80;;
68273;SDS011;55104;47.356;19.448;2024-03-23T14:04:51;5.85;;;1.70;;
68273;SDS011;55104;47.356;19.448;2024-03-23T14:07:53;4.43;;;1.45;;
68273;SDS011;55104;47.356;19.448;2024-03-23T14:10:55;4.40;;;1.47;;
68273;SDS011;55104;47.356;19.448;2024-03-23T14:13:57;6.03;;;1.47;;
68273;SDS011;55104;47.356;19.448;2024-03-23T14:16:58;6.45;;;2.25;;
68273;SDS011;55104;47.356;19.448;2024-03-23T14:19:59;4.50;;;1.75;;
68273;SDS011;55104;47.356;19.448;2024-03-23T14:23:06;5.85;;;2.08;;
68273;SDS011;55104;47.356;19.448;2024-03-23T14:26:07;5.60;;;1.40;;
68273;SDS011;55104;47.356;19.448;2024-03-23T14:29:09;6.67;;;2.00;;
68273;SDS011;55104;47.356;19.448;2024-03-23T14:32:10;5.90;;;1.88;;
68273;SDS011;55104;47.356;19.448;2024-03-23T14:35:11;5.75;;;1.92;;
68273;SDS011;55104;47.356;19.448;2024-03-23T14:38:13;6.80;;;2.20;;
68273;SDS011;55104;47.356;19.448;2024-03-23T14:41:14;4.10;;;1.30;;
68273;SDS011;55104;47.356;19.448;2024-03-23T14:44:16;5.00;;;1.85;;
68273;SDS011;55104;47.356;19.448;2024-03-23T14:47:17;4.47;;;1.30;;
68273;SDS011;55104;47.356;19.448;2024-03-23T14:50:19;6.50;;;1.90;;
68273;SDS011;55104;47.356;19.448;2024-03-23T14:53:22;6.93;;;2.03;;
68273;SDS011;55104;47.356;19.448;2024-03-23T14:56:23;4.63;;;1.70;;
68273;SDS011;55104;47.356;19.448;2024-03-23T14:59:24;5.43;;;1.67;;
68273;SDS011;55104;47.356;19.448;2024-03-23T15:02:26;4.32;;;1.55;;
68273;SDS011;55104;47.356;19.448;2024-03-23T15:05:29;5.90;;;1.95;;
68273;SDS011;55104;47.356;19.448;2024-03-23T15:08:30;6.03;;;1.80;;
68273;SDS011;55104;47.356;19.448;2024-03-23T15:11:31;6.33;;;2.27;;
68273;SDS011;55104;47.356;19.448;2024-03-23T15:14:33;5.78;;;1.70;;
68273;SDS011;55104;47.356;19.448;2024-03-23T15:17:35;7.05;;;2.30;;
68273;SDS011;55104;47.356;19.448;2024-03-23T15:20:41;6.55;;;2.20;;
68273;SDS011;55104;47.356;19.448;2024-03-23T15:23:43;5.82;;;1.85;;
68273;SDS011;55104;47.356;19.448;2024-03-23T15:26:44;5.83;;;1.87;;
68273;SDS011;55104;47.356;19.448;2024-03-23T15:29:45;6.88;;;2.05;;
68273;SDS011;55104;47.356;19.448;2024-03-23T15:32:46;5.70;;;1.95;;
68273;SDS011;55104;47.356;19.448;2024-03-23T15:35:48;4.88;;;1.60;;
68273;SDS011;55104;47.356;19.448;2024-03-23T15:38:49;5.28;;;1.70;;
68273;SDS011;55104;47.356;19.448;2024-03-23T15:41:50;4.97;;;1.50;;
68273;SDS011;55104;47.356;19.448;2024-03-23T15:44:51;6.70;;;1.70;;
68273;SDS011;55104;47.356;19.448;2024-03-23T15:47:52;6.65;;;1.92;;
68273;SDS011;55104;47.356;19.448;2024-03-23T15:50:55;6.30;;;1.85;;
68273;SDS011;55104;47.356;19.448;2024-03-23T15:53:58;5.68;;;1.70;;
68273;SDS011;55104;47.356;19.448;2024-03-23T15:57:00;7.37;;;2.20;;
68273;SDS011;55104;47.356;19.448;2024-03-23T16:00:02;4.82;;;1.67;;
68273;SDS011;55104;47.356;19.448;2024-03-23T16:03:12;7.68;;;2.35;;
68273;SDS011;55104;47.356;19.448;2024-03-23T16:06:13;6.53;;;1.85;;
68273;SDS011;55104;47.356;19.448;2024-03-23T16:09:15;7.30;;;1.98;;
68273;SDS011;55104;47.356;19.448;2024-03-23T16:12:16;9.60;;;2.37;;
68273;SDS011;55104;47.356;19.448;2024-03-23T16:15:18;7.28;;;2.45;;
68273;SDS011;55104;47.356;19.448;2024-03-23T16:18:19;7.43;;;2.30;;
68273;SDS011;55104;47.356;19.448;2024-03-23T16:21:20;9.02;;;3.30;;
68273;SDS011;55104;47.356;19.448;2024-03-23T16:24:21;9.65;;;3.60;;
68273;SDS011;55104;47.356;19.448;2024-03-23T16:27:23;12.80;;;4.00;;
68273;SDS011;55104;47.356;19.448;2024-03-23T16:30:25;14.30;;;3.97;;
68273;SDS011;55104;47.356;19.448;2024-03-23T16:33:26;10.18;;;3.67;;
68273;SDS011;55104;47.356;19.448;2024-03-23T16:36:29;7.85;;;2.47;;
68273;SDS011;55104;47.356;19.448;2024-03-23T16:39:30;7.32;;;2.20;;
68273;SDS011;55104;47.356;19.448;2024-03-23T16:42:32;6.23;;;2.13;;
68273;SDS011;55104;47.356;19.448;2024-03-23T16:45:33;7.15;;;2.30;;
68273;SDS011;55104;47.356;19.448;2024-03-23T16:48:34;12.20;;;2.80;;
68273;SDS011;55104;47.356;19.448;2024-03-23T16:51:36;7.63;;;2.38;;
68273;SDS011;55104;47.356;19.448;2024-03-23T16:54:37;10.70;;;3.30;;
68273;SDS011;55104;47.356;19.448;2024-03-23T16:57:39;11.20;;;3.10;;
68273;SDS011;55104;47.356;19.448;2024-03-23T17:00:40;12.57;;;3.67;;
68273;SDS011;55104;47.356;19.448;2024-03-23T17:03:41;8.90;;;3.28;;
68273;SDS011;55104;47.356;19.448;2024-03-23T17:06:43;11.95;;;3.63;;
68273;SDS011;55104;47.356;19.448;2024-03-23T17:09:48;14.00;;;3.58;;
68273;SDS011;55104;47.356;19.448;2024-03-23T17:12:49;10.03;;;4.03;;
68273;SDS011;55104;47.356;19.448;2024-03-23T17:15:50;9.38;;;3.47;;
68273;SDS011;55104;47.356;19.448;2024-03-23T17:18:52;10.13;;;4.10;;
68273;SDS011;55104;47.356;19.448;2024-03-23T17:21:54;12.38;;;4.45;;
68273;SDS011;55104;47.356;19.448;2024-03-23T17:24:55;9.50;;;3.35;;
68273;SDS011;55104;47.356;19.448;2024-03-23T17:27:58;13.13;;;3.80;;
68273;SDS011;55104;47.356;19.448;2024-03-23T17:30:59;12.40;;;4.68;;
68273;SDS011;55104;47.356;19.448;2024-03-23T17:34:01;17.63;;;7.22;;
68273;SDS011;55104;47.356;19.448;2024-03-23T17:37:03;21.17;;;8.60;;
68273;SDS011;55104;47.356;19.448;2024-03-23T17:40:05;20.25;;;8.35;;
68273;SDS011;55104;47.356;19.448;2024-03-23T17:43:08;13.27;;;5.57;;
68273;SDS011;55104;47.356;19.448;2024-03-23T17:46:09;12.73;;;5.25;;
68273;SDS011;55104;47.356;19.448;2024-03-23T17:49:11;24.10;;;10.57;;
68273;SDS011;55104;47.356;19.448;2024-03-23T17:52:12;15.38;;;5.43;;
68273;SDS011;55104;47.356;19.448;2024-03-23T17:55:15;8.07;;;1.23;;
68273;SDS011;55104;47.356;19.448;2024-03-23T17:58:17;3.23;;;0.90;;
68273;SDS011;55104;47.356;19.448;2024-03-23T18:01:19;5.78;;;0.75;;
68273;SDS011;55104;47.356;19.448;2024-03-23T18:04:23;1.10;;;0.38;;
68273;SDS011;55104;47.356;19.448;2024-03-23T18:07:26;1.13;;;0.40;;
68273;SDS011;55104;47.356;19.448;2024-03-23T18:10:30;1.08;;;0.43;;
68273;SDS011;55104;47.356;19.448;2024-03-23T18:13:32;1.83;;;0.60;;
68273;SDS011;55104;47.356;19.448;2024-03-23T18:16:35;6.90;;;0.77;;
68273;SDS011;55104;47.356;19.448;2024-03-23T18:19:38;7.85;;;0.70;;
68273;SDS011;55104;47.356;19.448;2024-03-23T18:22:40;11.48;;;0.63;;
68273;SDS011;55104;47.356;19.448;2024-03-23T18:25:50;9.27;;;0.30;;
68273;SDS011;55104;47.356;19.448;2024-03-23T18:28:53;1.47;;;0.47;;
68273;SDS011;55104;47.356;19.448;2024-03-23T18:31:56;0.43;;;0.20;;
68273;SDS011;55104;47.356;19.448;2024-03-23T18:35:00;2.78;;;0.47;;
68273;SDS011;55104;47.356;19.448;2024-03-23T18:38:10;1.95;;;0.82;;
68273;SDS011;55104;47.356;19.448;2024-03-23T18:41:14;1.38;;;0.30;;
68273;SDS011;55104;47.356;19.448;2024-03-23T18:44:16;1.30;;;0.43;;
68273;SDS011;55104;47.356;19.448;2024-03-23T18:47:18;1.77;;;0.95;;